Decoded Metar for MMCL (CULIACAN in MEXICO) (IATA:CUL) | Meteo·Mobile Aviation Weather
aviador You're here:

MMCL Decoded Metar

CULIACAN in MEXICO
Report Time2019-10-18 12:40:00
UTC Time2019-10-18 13:15:05
Flight Rules vfr VFR
WindCalm
Visibility9999 m
Phenomena:N/A
Clouds:Scattered 015 Hf
Scattered 230 Hf
CeilingNone
Temp25°C (ISA +10)
Dew Point25°C (100% RH)
QNH1009 hPa
Density Alt1,867 ft
Elevation128 ft
Report Wrong Elevation
Raw Report
METAR MMCL 181240Z 00000KT 10SM SCT015 SCT230 25/25 A2980 RMK 8/504=

Extra information for MMCL:More info

Metar Taf Metar & Taf Last 4 Metars F.Rules Stats Wind Profile Meteogram Temp Stats Airport Information Weather charts Add Link Nearby VenuesMetar ALERT Operation Metar Decoded Social comments